Time;durP1;ratioP1;P1;durP2;ratioP2;P2;SDS_P1;SDS_P2;PMS_P1;PMS_P2;Temp;Humidity;BMP_temperature;BMP_pressure;BME280_temperature;BME280_humidity;BME280_pressure;Samples;Min_cycle;Max_cycle;Signal;HPM_P1;HPM_P2
2021/09/09 09:03:11;;;;;;;15.70;10.25;;;;;;;29.97;39.71;100723.26;1716176;82;27354;-68
2021/09/09 09:05:39;;;;;;;14.18;9.65;;;;;;;30.17;40.71;100715.61;1705769;82;25808;-67
2021/09/09 09:10:56;;;;;;;;;;;;;;;30.56;38.03;100711.70;1781942;76;26887;-67
2021/09/09 09:13:28;;;;;;;13.70;8.60;;;;;;;30.59;38.23;100708.05;1778895;78;26219;-67
2021/09/09 09:15:55;;;;;;;15.23;9.95;;;;;;;30.69;37.37;100712.57;1781889;78;27405;-67
2021/09/09 09:18:28;;;;;;;13.08;9.48;;;;;;;30.53;37.99;100707.02;1777931;79;25515;-67
2021/09/09 09:20:55;;;;;;;13.00;8.90;;;;;;;30.76;37.83;100703.85;1775110;78;25761;-67
2021/09/09 09:23:27;;;;;;;12.63;8.35;;;;;;;30.86;36.50;100706.34;1791088;78;27724;-67
2021/09/09 09:25:59;;;;;;;13.90;8.40;;;;;;;30.69;36.53;100703.42;1785502;78;25567;-69
2021/09/09 09:28:38;;;;;;;14.55;8.70;;;;;;;30.69;35.46;100699.23;1781640;79;27948;-68
2021/09/09 09:31:09;;;;;;;10.40;8.10;;;;;;;30.73;36.05;100695.13;1801219;78;25592;-68
2021/09/09 09:33:40;;;;;;;11.88;8.55;;;;;;;30.86;34.95;100696.58;1796587;78;25740;-68
2021/09/09 09:36:24;;;;;;;9.35;7.75;;;;;;;30.87;34.83;100698.16;1786980;78;25650;-68
2021/09/09 09:38:55;;;;;;;12.75;8.15;;;;;;;31.00;35.33;100703.03;1781951;78;25411;-68
2021/09/09 09:41:25;;;;;;;9.90;7.97;;;;;;;31.03;34.63;100698.75;1793587;78;28018;-67
2021/09/09 09:43:56;;;;;;;13.45;8.70;;;;;;;31.10;33.31;100694.97;1782938;78;26340;-67
2021/09/09 09:46:30;;;;;;;13.35;8.48;;;;;;;30.95;33.72;100693.80;1798198;78;26181;-68
2021/09/09 09:49:24;;;;;;;15.30;8.95;;;;;;;30.95;34.11;100695.97;1792582;78;25757;-68
2021/09/09 09:51:52;;;;;;;12.03;8.50;;;;;;;30.88;33.98;100687.14;1779319;78;25673;-68
2021/09/09 09:54:21;;;;;;;13.72;8.65;;;;;;;30.92;33.68;100681.45;1786338;78;27317;-68
2021/09/09 09:56:49;;;;;;;10.45;8.08;;;;;;;30.78;34.11;100679.84;1752172;79;25818;-68
2021/09/09 09:59:17;;;;;;;15.28;8.80;;;;;;;30.87;33.56;100677.80;1731273;81;25813;-67
2021/09/09 10:01:45;;;;;;;10.05;8.60;;;;;;;30.67;33.59;100675.95;1730666;80;25596;-69
2021/09/09 10:04:19;;;;;;;12.65;8.68;;;;;;;30.68;33.16;100670.55;1736330;81;26109;-68
2021/09/09 10:06:50;;;;;;;10.45;8.03;;;;;;;30.75;34.10;100669.58;1737888;81;27276;-66
2021/09/09 10:09:18;;;;;;;12.60;8.40;;;;;;;31.12;33.67;100668.00;1736147;80;25740;-68
2021/09/09 10:11:45;;;;;;;11.40;8.30;;;;;;;31.24;33.60;100664.45;1744920;81;25910;-68
2021/09/09 10:14:24;;;;;;;13.08;8.15;;;;;;;31.33;31.58;100667.39;1742215;81;25793;-68
2021/09/09 10:16:57;;;;;;;8.93;7.40;;;;;;;31.18;32.83;100657.23;1732757;81;25477;-67
2021/09/09 10:19:32;;;;;;;9.15;7.95;;;;;;;31.36;32.73;100676.27;1740189;80;27325;-67
2021/09/09 10:22:12;;;;;;;13.78;7.42;;;;;;;31.10;32.02;100662.85;1749189;80;25912;-67
2021/09/09 10:24:45;;;;;;;8.83;7.55;;;;;;;31.11;32.98;100663.03;1772676;79;25515;-67
2021/09/09 10:30:04;;;;;;;11.55;7.72;;;;;;;32.10;33.21;100655.52;1736705;80;25476;-67
2021/09/09 10:32:36;;;;;;;10.80;8.75;;;;;;;32.43;31.98;100658.02;1781587;79;27484;-67
2021/09/09 10:35:26;;;;;;;8.45;7.55;;;;;;;32.41;31.14;100664.70;1786027;78;25689;-67
2021/09/09 10:37:52;;;;;;;11.15;7.97;;;;;;;32.30;29.39;100660.84;1777063;79;25775;-67
2021/09/09 10:40:35;;;;;;;9.10;7.30;;;;;;;31.84;30.65;100664.68;1745411;79;25664;-67
2021/09/09 10:43:27;;;;;;;9.23;7.72;;;;;;;31.79;31.37;100650.45;1736728;79;25658;-68
2021/09/09 10:46:03;;;;;;;11.93;7.12;;;;;;;31.90;31.11;100660.70;1739794;81;27327;-67
2021/09/09 10:48:31;;;;;;;8.28;6.67;;;;;;;31.63;30.34;100649.95;1785997;79;25802;-67
2021/09/09 10:51:02;;;;;;;8.58;7.58;;;;;;;31.48;30.81;100646.77;1780348;78;25649;-66
2021/09/09 10:53:56;;;;;;;8.53;7.17;;;;;;;31.44;30.41;100646.11;1779313;79;27708;-68
2021/09/09 10:56:29;;;;;;;8.83;7.97;;;;;;;31.40;30.71;100645.45;1774063;78;25900;-65
2021/09/09 10:59:19;;;;;;;11.50;8.08;;;;;;;31.37;31.16;100638.72;1784509;78;27432;-66
2021/09/09 11:01:48;;;;;;;9.73;8.38;;;;;;;31.39;31.19;100631.29;1742345;80;25847;-66
2021/09/09 11:04:30;;;;;;;9.20;7.83;;;;;;;31.42;30.75;100637.39;1788956;78;26565;-67
2021/09/09 11:06:58;;;;;;;11.33;7.65;;;;;;;31.18;30.73;100631.32;1773603;78;26252;-66
2021/09/09 11:09:27;;;;;;;9.65;8.28;;;;;;;31.06;30.77;100630.84;1778805;78;26437;-67
2021/09/09 11:12:03;;;;;;;9.50;8.50;;;;;;;31.27;31.57;100622.44;1786235;78;27377;-68
2021/09/09 11:14:32;;;;;;;12.65;8.43;;;;;;;31.68;31.64;100622.06;1775701;79;25451;-69
2021/09/09 11:16:59;;;;;;;9.78;7.40;;;;;;;31.93;31.60;100618.48;1785505;79;31921;-69
2021/09/09 11:19:26;;;;;;;7.83;6.72;;;;;;;31.99;30.32;100618.86;1771294;78;26163;-67
2021/09/09 11:21:53;;;;;;;9.23;6.78;;;;;;;31.97;30.32;100616.33;1779991;79;25872;-67
2021/09/09 11:24:20;;;;;;;7.92;7.10;;;;;;;32.15;29.04;100616.56;1783726;79;27227;-68
2021/09/09 11:26:50;;;;;;;8.18;7.17;;;;;;;31.93;29.17;100611.48;1776356;79;25799;-68
2021/09/09 11:29:23;;;;;;;8.03;7.22;;;;;;;31.74;29.70;100617.45;1772478;78;25796;-67
2021/09/09 11:31:56;;;;;;;7.65;6.85;;;;;;;31.84;30.05;100605.95;1783457;79;25689;-67
2021/09/09 11:34:32;;;;;;;7.83;6.83;;;;;;;31.81;28.17;100602.65;1780452;79;25645;-66
2021/09/09 11:37:04;;;;;;;10.15;7.40;;;;;;;31.81;28.17;100602.65;1761954;79;27383;-67
2021/09/09 11:39:36;;;;;;;9.73;7.62;;;;;;;31.68;28.63;100616.47;1788623;78;25840;-68
2021/09/09 11:42:07;;;;;;;8.68;7.17;;;;;;;31.47;28.78;100613.08;1802494;78;25607;-68
2021/09/09 11:44:37;;;;;;;9.08;8.18;;;;;;;31.24;28.74;100603.76;1801398;78;25925;-67
2021/09/09 11:47:18;;;;;;;10.15;7.85;;;;;;;31.30;29.55;100600.45;1788296;78;25833;-68
2021/09/09 11:49:47;;;;;;;10.98;8.63;;;;;;;31.12;29.35;100600.34;1731406;81;27170;-65
2021/09/09 11:52:13;;;;;;;8.60;7.67;;;;;;;31.04;30.21;100586.41;1764730;79;25697;-67
2021/09/09 11:54:40;;;;;;;8.70;7.47;;;;;;;31.42;30.11;100590.66;1781165;80;25790;-67
2021/09/09 11:57:13;;;;;;;8.85;7.95;;;;;;;31.59;30.19;100585.77;1783602;79;25683;-66
2021/09/09 11:59:56;;;;;;;8.98;8.08;;;;;;;31.76;29.38;100595.45;1780964;78;25866;-69
2021/09/09 12:05:18;;;;;;;10.95;8.20;;;;;;;31.95;30.11;100586.02;1784748;78;25811;-68
2021/09/09 12:07:45;;;;;;;9.15;8.25;;;;;;;32.19;28.58;100579.44;1777234;78;25804;-68
2021/09/09 12:10:18;;;;;;;9.48;8.00;;;;;;;31.96;28.58;100572.20;1751018;79;25737;-68
2021/09/09 12:12:55;;;;;;;13.18;7.20;;;;;;;31.90;29.35;100571.20;1785708;78;25402;-68
2021/09/09 12:15:25;;;;;;;11.20;7.65;;;;;;;31.94;28.78;100561.29;1750812;81;27311;-68
2021/09/09 12:17:51;;;;;;;9.70;7.85;;;;;;;31.93;28.16;100578.70;1787215;78;26086;-67
2021/09/09 12:20:25;;;;;;;9.93;7.20;;;;;;;31.64;28.36;100575.43;1792393;79;25794;-69
2021/09/09 12:22:56;;;;;;;9.15;6.70;;;;;;;31.56;29.15;100559.34;1750198;80;26566;-68
2021/09/09 12:25:30;;;;;;;7.65;6.95;;;;;;;32.05;29.14;100569.34;1799127;78;25672;-69
2021/09/09 12:28:16;;;;;;;10.23;7.05;;;;;;;32.16;27.39;100578.17;1789933;78;27291;-68
2021/09/09 12:30:52;;;;;;;8.70;7.37;;;;;;;32.00;28.13;100563.07;1775664;78;25638;-67
2021/09/09 12:33:28;;;;;;;8.05;6.87;;;;;;;31.73;27.99;100562.79;1780021;78;25795;-66
2021/09/09 12:36:10;;;;;;;7.58;6.70;;;;;;;31.73;28.24;100558.59;1717966;81;25990;-69
2021/09/09 12:38:55;;;;;;;8.18;6.40;;;;;;;31.59;27.35;100565.44;1752736;78;25389;-68
2021/09/09 12:41:30;;;;;;;9.50;7.10;;;;;;;31.63;27.65;100557.70;1767331;79;27386;-68
2021/09/09 12:44:05;;;;;;;10.18;7.03;;;;;;;31.47;27.55;100555.17;1737968;80;25858;-68
2021/09/09 12:49:22;;;;;;;7.60;6.83;;;;;;;31.69;28.18;100550.33;1770595;79;25655;-68
2021/09/09 12:51:59;;;;;;;8.70;7.05;;;;;;;31.92;28.63;100547.76;1781596;78;25478;-68
2021/09/09 12:54:26;;;;;;;8.93;6.72;;;;;;;32.04;28.27;100541.97;1785519;78;27316;-68
2021/09/09 12:56:56;;;;;;;10.88;7.45;;;;;;;32.13;27.51;100546.89;1782941;79;25719;-67
2021/09/09 12:59:30;;;;;;;8.23;6.75;;;;;;;31.75;27.15;100540.12;1770959;79;25770;-66
2021/09/09 13:01:52;;;;;;;;;;;;;;;31.70;27.64;100542.72;1781995;79;25865;-67
2021/09/09 13:04:20;;;;;;;9.55;7.45;;;;;;;31.61;27.50;100542.00;1778982;78;25802;-69
2021/09/09 13:06:47;;;;;;;8.10;7.30;;;;;;;31.29;28.00;100531.19;1777684;78;27304;-67
2021/09/09 13:09:14;;;;;;;7.78;6.70;;;;;;;31.38;28.67;100532.72;1742609;80;25433;-68
2021/09/09 13:11:43;;;;;;;7.58;6.87;;;;;;;31.48;28.25;100529.39;1747372;81;25412;-69
2021/09/09 13:14:10;;;;;;;7.80;6.70;;;;;;;31.43;28.14;100522.38;1781356;79;25955;-66
2021/09/09 13:16:39;;;;;;;8.95;7.22;;;;;;;31.39;28.14;100529.30;1766951;80;26409;-67
2021/09/09 13:19:06;;;;;;;9.05;7.40;;;;;;;31.29;27.84;100525.60;1788025;78;27365;-68
2021/09/09 13:21:34;;;;;;;7.20;6.47;;;;;;;31.07;28.08;100530.47;1763475;79;26235;-66
2021/09/09 13:24:02;;;;;;;9.20;7.35;;;;;;;30.94;28.34;100521.87;1776256;80;25509;-68
2021/09/09 13:26:30;;;;;;;14.73;7.13;;;;;;;30.79;28.16;100522.28;1776569;79;26291;-67
2021/09/09 13:28:57;;;;;;;9.23;7.17;;;;;;;30.81;28.49;100519.83;1775274;80;25931;-67
2021/09/09 13:31:25;;;;;;;8.23;7.03;;;;;;;30.66;28.26;100509.67;1777627;80;27683;-68
2021/09/09 13:33:57;;;;;;;8.90;7.17;;;;;;;30.60;28.57;100514.84;1778100;80;25660;-68
2021/09/09 13:36:23;;;;;;;8.95;7.28;;;;;;;30.56;28.20;100512.78;1778785;79;25810;-65
2021/09/09 13:38:50;;;;;;;10.00;7.15;;;;;;;30.49;29.03;100512.37;1758932;79;25604;-66
2021/09/09 13:41:16;;;;;;;9.08;6.65;;;;;;;30.61;28.97;100504.64;1779483;78;25679;-67
2021/09/09 13:43:43;;;;;;;10.75;7.25;;;;;;;30.57;29.25;100500.41;1779831;78;27363;-67
2021/09/09 13:46:10;;;;;;;9.58;6.90;;;;;;;30.62;29.43;100503.42;1775937;79;25782;-68
2021/09/09 13:48:36;;;;;;;9.98;7.25;;;;;;;30.81;29.43;100495.31;1792611;79;25870;-66
2021/09/09 13:51:03;;;;;;;10.03;6.37;;;;;;;30.81;29.00;100505.86;1759057;80;25953;-66
2021/09/09 13:53:29;;;;;;;8.28;6.87;;;;;;;30.57;28.63;100492.80;1770509;78;25594;-67
2021/09/09 13:55:56;;;;;;;10.98;7.37;;;;;;;30.41;29.21;100498.44;1774406;79;27295;-67
2021/09/09 13:58:23;;;;;;;7.97;6.70;;;;;;;30.39;29.80;100493.91;1785462;79;25835;-67
2021/09/09 14:00:49;;;;;;;10.72;7.62;;;;;;;30.49;30.20;100490.05;1761229;79;26273;-68
2021/09/09 14:03:22;;;;;;;8.60;7.53;;;;;;;30.71;30.22;100493.77;1771794;79;26075;-68
2021/09/09 14:05:58;;;;;;;10.23;7.53;;;;;;;30.86;29.48;100492.75;1731018;80;25823;-67
2021/09/09 14:08:29;;;;;;;10.32;7.22;;;;;;;30.76;29.25;100489.66;1740265;80;28265;-66
2021/09/09 14:13:51;;;;;;;11.73;7.42;;;;;;;30.25;29.30;100487.47;1754608;80;25848;-68
2021/09/09 14:16:18;;;;;;;11.48;7.08;;;;;;;30.06;29.90;100487.02;1795612;78;25836;-68
2021/09/09 14:18:44;;;;;;;10.20;7.12;;;;;;;29.97;30.14;100482.84;1787784;77;25564;-68
2021/09/09 14:21:20;;;;;;;11.00;7.30;;;;;;;30.11;30.77;100480.28;1753854;80;27304;-69
2021/09/09 14:23:53;;;;;;;9.30;7.10;;;;;;;30.15;29.40;100482.97;1799608;77;25600;-67
2021/09/09 14:26:21;;;;;;;10.38;6.87;;;;;;;29.79;29.45;100480.50;1776619;79;25610;-68
2021/09/09 14:28:51;;;;;;;9.80;6.92;;;;;;;29.68;30.00;100478.58;1763337;79;26311;-67
2021/09/09 14:31:18;;;;;;;9.93;7.33;;;;;;;29.77;30.60;100477.99;1797894;79;25746;-69
2021/09/09 14:33:58;;;;;;;7.20;6.30;;;;;;;29.62;29.94;100476.14;1810558;78;27349;-74
2021/09/09 14:39:00;;;;;;;9.63;7.45;;;;;;;29.18;30.63;100468.63;1794036;78;26180;-68
2021/09/09 14:41:27;;;;;;;9.00;7.50;;;;;;;29.04;30.64;100466.31;1786270;78;25620;-67
2021/09/09 14:44:14;;;;;;;12.93;7.25;;;;;;;28.81;30.96;100465.03;1795978;78;26559;-67
2021/09/09 14:46:48;;;;;;;10.18;7.35;;;;;;;28.67;31.39;100458.58;1783966;78;25920;-66
2021/09/09 14:49:16;;;;;;;10.88;7.40;;;;;;;28.67;31.86;100457.19;1787709;78;25826;-68
2021/09/09 14:51:43;;;;;;;10.48;6.67;;;;;;;28.72;32.36;100456.50;1793100;78;25788;-68
2021/09/09 14:54:09;;;;;;;8.68;6.40;;;;;;;28.77;31.88;100449.81;1783679;78;26228;-67
2021/09/09 14:56:36;;;;;;;10.08;7.10;;;;;;;28.75;31.99;100451.47;1803031;78;25870;-67
2021/09/09 14:59:03;;;;;;;9.75;7.00;;;;;;;28.66;31.74;100451.44;1775217;79;27302;-67
2021/09/09 15:01:30;;;;;;;8.13;6.78;;;;;;;28.65;31.95;100449.09;1812748;78;25779;-68
2021/09/09 15:03:56;;;;;;;8.03;6.83;;;;;;;28.55;31.87;100443.91;1776680;78;25688;-69
2021/09/09 15:06:25;;;;;;;10.23;6.60;;;;;;;28.39;32.08;100441.83;1763144;80;25612;-67
2021/09/09 15:08:53;;;;;;;9.33;6.87;;;;;;;28.26;32.32;100442.29;1782259;78;25706;-67
2021/09/09 15:11:19;;;;;;;10.08;6.97;;;;;;;28.08;31.99;100442.66;1777458;78;28128;-66
2021/09/09 15:13:46;;;;;;;8.70;6.62;;;;;;;27.88;32.08;100442.58;1783740;77;25896;-66
2021/09/09 15:16:13;;;;;;;11.12;7.25;;;;;;;27.76;32.60;100437.03;1782043;78;25786;-66
2021/09/09 15:18:39;;;;;;;10.90;7.47;;;;;;;27.66;32.87;100432.45;1737669;80;25834;-67
2021/09/09 15:21:06;;;;;;;8.08;6.80;;;;;;;27.49;32.96;100432.31;1738197;80;25794;-70
2021/09/09 15:23:32;;;;;;;11.20;6.62;;;;;;;27.33;33.08;100437.75;1768804;78;27319;-67
2021/09/09 15:25:59;;;;;;;9.43;7.17;;;;;;;27.11;33.31;100435.27;1742216;78;25840;-67
2021/09/09 15:28:26;;;;;;;9.15;6.60;;;;;;;26.95;33.61;100433.70;1748581;79;25720;-68
2021/09/09 15:30:54;;;;;;;10.78;7.03;;;;;;;26.80;33.85;100432.53;1766710;79;25790;-65
2021/09/09 15:33:21;;;;;;;8.60;6.83;;;;;;;26.72;34.07;100430.27;1722481;80;26324;-68
2021/09/09 15:35:47;;;;;;;11.18;6.92;;;;;;;26.64;34.25;100430.34;1782856;78;27409;-66
2021/09/09 15:38:14;;;;;;;10.38;7.47;;;;;;;26.49;34.49;100422.59;1760815;79;25526;-67
2021/09/09 15:40:41;;;;;;;13.95;7.65;;;;;;;26.42;35.10;100430.41;1772626;79;26223;-66
2021/09/09 15:43:08;;;;;;;10.95;8.85;;;;;;;26.32;35.01;100429.93;1775248;79;25715;-67
2021/09/09 15:45:36;;;;;;;11.75;7.03;;;;;;;26.23;35.47;100423.50;1756135;79;25885;-68
2021/09/09 15:48:04;;;;;;;13.20;7.62;;;;;;;26.13;35.58;100424.41;1773671;79;27289;-69
2021/09/09 15:50:32;;;;;;;9.03;6.80;;;;;;;26.04;35.94;100422.12;1718411;80;25921;-69
2021/09/09 15:53:00;;;;;;;10.45;7.40;;;;;;;25.95;35.89;100424.58;1698677;81;25692;-67
2021/09/09 15:55:28;;;;;;;10.48;8.15;;;;;;;25.81;36.18;100417.97;1758771;79;26300;-69
2021/09/09 15:57:54;;;;;;;10.23;6.90;;;;;;;25.67;36.41;100412.55;1770596;78;25937;-69
2021/09/09 16:00:21;;;;;;;12.88;8.18;;;;;;;25.52;36.57;100413.27;1774820;79;27282;-67
2021/09/09 16:02:48;;;;;;;9.33;7.00;;;;;;;25.33;36.90;100411.84;1781914;79;25796;-67
2021/09/09 16:05:14;;;;;;;10.78;7.65;;;;;;;25.15;36.99;100405.83;1757708;78;25777;-66
2021/09/09 16:07:42;;;;;;;10.82;7.25;;;;;;;25.01;37.37;100407.89;1759899;79;25831;-67
2021/09/09 16:10:10;;;;;;;10.65;7.70;;;;;;;24.85;37.65;100400.09;1782560;78;25940;-67
2021/09/09 16:12:38;;;;;;;10.08;7.20;;;;;;;24.76;38.03;100397.78;1769087;79;27856;-65
2021/09/09 16:15:08;;;;;;;20.20;12.10;;;;;;;24.64;38.06;100392.69;1777969;78;25729;-67
2021/09/09 16:17:36;;;;;;;14.47;7.75;;;;;;;24.52;38.91;100380.07;1766145;78;25629;-66
2021/09/09 16:20:05;;;;;;;11.28;7.87;;;;;;;24.41;38.85;100382.89;1753389;80;26216;-66
2021/09/09 16:22:31;;;;;;;10.85;8.20;;;;;;;24.29;39.39;100384.73;1772151;79;25504;-66
2021/09/09 16:24:58;;;;;;;11.45;7.83;;;;;;;24.17;40.10;100385.34;1764684;80;27302;-66
2021/09/09 16:27:24;;;;;;;11.90;7.60;;;;;;;24.02;39.71;100383.24;1753283;79;25860;-66
2021/09/09 16:29:51;;;;;;;10.70;7.72;;;;;;;23.92;40.08;100387.39;1757282;79;25839;-65
2021/09/09 16:32:19;;;;;;;14.10;8.30;;;;;;;23.80;40.95;100377.52;1759715;79;25721;-66
2021/09/09 16:34:46;;;;;;;13.62;8.28;;;;;;;23.64;41.04;100380.11;1759192;79;25993;-65
2021/09/09 16:37:12;;;;;;;11.08;7.70;;;;;;;23.50;41.46;100382.30;1759861;80;27366;-66
2021/09/09 16:39:41;;;;;;;15.45;10.53;;;;;;;23.37;41.50;100384.47;1750653;80;25848;-66
2021/09/09 16:42:08;;;;;;;12.70;7.95;;;;;;;23.21;42.05;100372.45;1750315;80;25587;-66
2021/09/09 16:44:35;;;;;;;13.72;9.50;;;;;;;23.08;42.34;100374.19;1761224;78;26267;-69
2021/09/09 16:47:02;;;;;;;12.98;8.20;;;;;;;22.92;42.54;100366.27;1763946;79;25643;-66
2021/09/09 16:49:29;;;;;;;18.02;12.58;;;;;;;22.78;42.86;100366.83;1745058;80;29435;-66
2021/09/09 16:51:56;;;;;;;14.25;9.73;;;;;;;22.65;43.26;100371.33;1774426;77;25877;-67
2021/09/09 16:54:24;;;;;;;11.63;8.40;;;;;;;22.53;43.50;100372.47;1744354;80;25689;-66
2021/09/09 16:56:52;;;;;;;12.82;8.45;;;;;;;22.41;44.10;100374.78;1745737;80;26102;-66
2021/09/09 16:59:27;;;;;;;15.70;8.00;;;;;;;22.27;44.01;100372.16;1752248;80;25688;-66
2021/09/09 17:01:48;;;;;;;15.00;9.15;;;;;;;22.14;44.09;100368.16;1746416;80;27337;-66
2021/09/09 17:04:15;;;;;;;19.45;9.03;;;;;;;22.00;44.81;100373.01;1759584;79;26563;-66
2021/09/09 17:06:43;;;;;;;21.12;10.85;;;;;;;21.86;45.00;100375.06;1730114;81;25776;-66
2021/09/09 17:09:10;;;;;;;23.52;12.93;;;;;;;21.75;45.27;100381.88;1748002;80;26485;-66
2021/09/09 17:11:36;;;;;;;21.37;12.65;;;;;;;21.63;45.38;100382.98;1745002;80;25827;-66
2021/09/09 17:14:03;;;;;;;22.13;10.75;;;;;;;21.49;45.76;100387.02;1752435;80;27370;-66
2021/09/09 17:16:31;;;;;;;21.33;10.30;;;;;;;21.39;46.24;100395.94;1748474;80;25860;-69
2021/09/09 17:18:58;;;;;;;19.52;10.00;;;;;;;21.25;46.70;100396.61;1757459;79;25723;-66
2021/09/09 17:21:24;;;;;;;16.52;8.95;;;;;;;21.12;46.84;100396.68;1751026;80;25807;-68
2021/09/09 17:23:53;;;;;;;21.75;13.18;;;;;;;21.01;46.87;100391.87;1755028;79;26365;-67
2021/09/09 17:26:20;;;;;;;13.50;10.43;;;;;;;20.89;47.36;100397.05;1748609;80;27586;-70
2021/09/09 17:28:46;;;;;;;16.02;10.65;;;;;;;20.76;48.06;100394.34;1802694;79;25992;-66
2021/09/09 17:31:17;;;;;;;19.45;10.58;;;;;;;20.60;48.36;100400.03;1793920;78;26091;-67
2021/09/09 17:36:16;;;;;;;22.40;11.88;;;;;;;20.32;48.91;100403.20;1794745;78;25816;-66
2021/09/09 17:38:43;;;;;;;25.70;11.22;;;;;;;20.19;49.18;100398.52;1783509;78;27920;-69
2021/09/09 17:41:10;;;;;;;24.12;11.83;;;;;;;20.04;49.30;100388.50;1798800;78;26504;-65
2021/09/09 17:43:38;;;;;;;19.95;10.93;;;;;;;19.95;50.06;100404.69;1813028;78;25640;-68
2021/09/09 17:46:05;;;;;;;16.00;11.03;;;;;;;19.83;50.38;100397.22;1802575;78;26613;-70
2021/09/09 17:48:32;;;;;;;18.32;11.25;;;;;;;19.72;51.04;100392.34;1739829;80;25909;-70
2021/09/09 17:51:00;;;;;;;24.00;12.00;;;;;;;19.64;51.13;100400.23;1749160;80;27333;-68
2021/09/09 17:53:27;;;;;;;18.65;12.73;;;;;;;19.56;51.42;100395.80;1743028;80;25835;-69
2021/09/09 17:55:53;;;;;;;23.60;13.48;;;;;;;19.48;51.57;100397.65;1745469;80;25703;-69
2021/09/09 17:58:21;;;;;;;21.02;12.28;;;;;;;19.41;51.82;100393.42;1741014;81;26157;-68
2021/09/09 18:00:48;;;;;;;28.57;14.13;;;;;;;19.31;52.16;100393.45;1747155;81;25699;-67
2021/09/09 18:03:14;;;;;;;27.90;14.60;;;;;;;19.24;52.28;100404.30;1739844;81;27417;-68
2021/09/09 18:05:41;;;;;;;26.82;13.90;;;;;;;19.18;52.43;100401.63;1738996;80;25688;-68
2021/09/09 18:08:08;;;;;;;20.48;11.97;;;;;;;19.10;52.91;100403.44;1778143;80;25585;-67
2021/09/09 18:10:35;;;;;;;25.23;14.20;;;;;;;19.02;52.77;100404.48;1770078;79;25974;-68
2021/09/09 18:13:02;;;;;;;21.77;12.95;;;;;;;18.93;52.95;100403.33;1761925;79;25649;-66
2021/09/09 18:15:30;;;;;;;17.52;11.80;;;;;;;18.85;53.43;100403.78;1750102;79;28004;-68
2021/09/09 18:17:56;;;;;;;21.60;13.70;;;;;;;18.76;53.43;100403.75;1762617;79;25668;-67
2021/09/09 18:20:23;;;;;;;27.13;14.43;;;;;;;18.69;53.90;100404.98;1757420;80;25885;-68
2021/09/09 18:22:50;;;;;;;27.65;14.58;;;;;;;18.60;53.86;100404.62;1772911;78;25704;-68
2021/09/09 18:25:17;;;;;;;27.02;14.23;;;;;;;18.51;54.67;100396.41;1769874;80;25905;-70
2021/09/09 18:27:44;;;;;;;30.52;16.35;;;;;;;18.44;54.66;100404.70;1764764;79;27323;-70
2021/09/09 18:30:11;;;;;;;31.17;14.55;;;;;;;18.39;55.09;100404.18;1752381;80;26208;-69
2021/09/09 18:32:38;;;;;;;22.50;12.95;;;;;;;18.32;55.22;100402.11;1748796;79;25839;-69
2021/09/09 18:35:06;;;;;;;37.23;17.75;;;;;;;18.25;55.18;100404.11;1780747;79;25752;-70
2021/09/09 18:37:36;;;;;;;43.05;19.50;;;;;;;18.18;55.18;100403.16;1782449;79;26482;-70
2021/09/09 18:40:06;;;;;;;35.88;18.07;;;;;;;18.11;55.87;100405.16;1775757;80;26969;-68
2021/09/09 18:42:32;;;;;;;33.25;18.95;;;;;;;18.04;55.80;100414.00;1783367;79;25877;-68
2021/09/09 18:44:59;;;;;;;31.57;19.67;;;;;;;17.99;56.10;100411.53;1741694;80;25741;-69
2021/09/09 18:47:25;;;;;;;28.23;17.02;;;;;;;17.92;56.57;100412.16;1782320;80;26455;-69
2021/09/09 18:49:52;;;;;;;24.43;14.90;;;;;;;17.88;56.10;100415.98;1741803;80;25672;-70
2021/09/09 18:52:19;;;;;;;27.62;15.35;;;;;;;17.82;56.62;100415.42;1783486;78;27278;-70
2021/09/09 18:54:47;;;;;;;29.10;13.68;;;;;;;17.74;56.99;100414.47;1777069;79;25830;-70
2021/09/09 18:57:15;;;;;;;28.23;14.33;;;;;;;17.68;56.89;100419.98;1780901;78;25586;-70
2021/09/09 18:59:41;;;;;;;24.52;14.73;;;;;;;17.62;57.16;100415.12;1778535;78;25769;-69
2021/09/09 19:02:09;;;;;;;19.85;13.45;;;;;;;17.58;57.30;100418.36;1775910;78;25862;-68
2021/09/09 19:04:36;;;;;;;25.90;15.68;;;;;;;17.49;57.48;100419.33;1772362;79;27305;-69
2021/09/09 19:07:04;;;;;;;27.13;15.63;;;;;;;17.44;58.13;100422.91;1776018;79;25586;-69
2021/09/09 19:09:31;;;;;;;25.75;15.23;;;;;;;17.37;58.11;100415.31;1777319;79;26167;-68
2021/09/09 19:11:58;;;;;;;26.48;16.15;;;;;;;17.32;58.20;100433.34;1782097;78;25715;-68
2021/09/09 19:14:24;;;;;;;23.02;14.78;;;;;;;17.26;58.39;100432.79;1777202;79;26274;-68
2021/09/09 19:16:51;;;;;;;29.75;15.68;;;;;;;17.21;58.86;100425.43;1778416;78;27295;-69
2021/09/09 19:19:17;;;;;;;24.02;14.50;;;;;;;17.16;59.07;100431.94;1783040;79;26279;-68
2021/09/09 19:21:44;;;;;;;23.57;15.23;;;;;;;17.10;58.63;100427.89;1778499;78;25775;-69
2021/09/09 19:24:16;;;;;;;25.90;15.55;;;;;;;17.05;58.99;100434.39;1775374;79;25720;-68
2021/09/09 19:26:49;;;;;;;22.90;14.83;;;;;;;16.99;59.42;100432.50;1777156;78;25851;-67
2021/09/09 19:29:15;;;;;;;20.08;14.10;;;;;;;16.94;59.47;100437.39;1786543;79;27494;-66
2021/09/09 19:31:47;;;;;;;;;;;;;;;16.89;59.56;100431.62;1789342;78;25829;-66
2021/09/09 19:34:14;;;;;;;29.00;15.18;;;;;;;16.86;59.80;100437.00;1782415;78;25424;-65
2021/09/09 19:36:40;;;;;;;27.40;14.80;;;;;;;16.83;59.68;100436.30;1787922;78;25589;-65
2021/09/09 19:39:07;;;;;;;26.93;14.68;;;;;;;16.80;59.84;100441.86;1777070;78;25798;-65
2021/09/09 19:41:35;;;;;;;21.57;13.93;;;;;;;16.76;60.71;100444.50;1756799;78;27333;-65
2021/09/09 19:44:02;;;;;;;28.42;15.75;;;;;;;16.70;60.43;100444.54;1780566;79;26145;-65
2021/09/09 19:46:30;;;;;;;33.38;19.15;;;;;;;16.70;60.51;100445.91;1782377;78;25695;-65
2021/09/09 19:49:17;;;;;;;25.60;14.55;;;;;;;16.68;60.60;100440.55;1778470;79;26197;-65
2021/09/09 19:51:43;;;;;;;21.50;14.07;;;;;;;16.64;60.74;100442.40;1772516;78;25669;-65
2021/09/09 19:54:11;;;;;;;24.92;14.33;;;;;;;16.61;60.61;100441.92;1787350;77;27402;-66
2021/09/09 19:56:38;;;;;;;19.27;14.10;;;;;;;16.58;60.63;100441.27;1795278;78;25610;-67
2021/09/09 19:59:06;;;;;;;23.18;13.83;;;;;;;16.58;60.74;100441.27;1818446;77;25823;-66
2021/09/09 20:01:32;;;;;;;28.70;14.05;;;;;;;16.55;60.90;100441.14;1811570;77;26182;-66
2021/09/09 20:03:59;;;;;;;23.25;13.45;;;;;;;16.52;60.68;100445.38;1812905;77;25363;-64
2021/09/09 20:06:25;;;;;;;21.02;13.53;;;;;;;16.50;61.00;100446.30;1815383;77;27324;-65
2021/09/09 20:08:52;;;;;;;25.45;13.83;;;;;;;16.46;61.24;100444.59;1802358;77;26021;-66
2021/09/09 20:11:22;;;;;;;21.82;13.93;;;;;;;16.42;61.33;100441.18;1806538;77;25683;-65
2021/09/09 20:13:48;;;;;;;19.80;13.90;;;;;;;16.41;61.38;100449.71;1813275;77;26596;-65
2021/09/09 20:16:15;;;;;;;20.82;14.07;;;;;;;16.37;61.12;100440.05;1802813;77;25804;-66
2021/09/09 20:18:44;;;;;;;23.73;13.88;;;;;;;16.37;61.53;100452.34;1808038;78;27312;-65
2021/09/09 20:21:10;;;;;;;22.70;13.37;;;;;;;16.35;61.41;100449.16;1790970;78;25831;-67
2021/09/09 20:23:41;;;;;;;23.18;14.70;;;;;;;16.32;61.42;100439.51;1780411;80;25785;-66
2021/09/09 20:26:10;;;;;;;25.37;14.03;;;;;;;16.31;61.61;100452.91;1727989;80;26357;-66
2021/09/09 20:28:38;;;;;;;22.73;14.00;;;;;;;16.28;61.50;100448.14;1740748;80;25634;-66
2021/09/09 20:31:06;;;;;;;32.40;22.03;;;;;;;16.26;61.88;100447.14;1764818;79;27943;-66
2021/09/09 20:33:34;;;;;;;21.00;13.58;;;;;;;16.19;61.83;100446.91;1770795;79;25691;-66
2021/09/09 20:36:02;;;;;;;21.82;14.55;;;;;;;16.18;61.92;100443.97;1774473;79;25541;-66
2021/09/09 20:38:29;;;;;;;22.73;14.50;;;;;;;16.16;61.96;100442.94;1799827;77;25623;-66
2021/09/09 20:40:55;;;;;;;26.20;15.75;;;;;;;16.14;62.09;100441.68;1811717;77;25937;-66
2021/09/09 20:43:22;;;;;;;20.32;13.78;;;;;;;16.12;61.81;100452.15;1799647;77;27406;-65
2021/09/09 20:45:48;;;;;;;25.97;15.25;;;;;;;16.07;62.07;100446.34;1797554;77;25958;-65
2021/09/09 20:48:16;;;;;;;24.43;15.72;;;;;;;16.05;62.00;100456.81;1803110;77;25396;-65